Aérodrome :
LOGIN :

S'inscrire | Disclaimer

   EN    FR    IT 

 










Légende :    VFR   VFR Marginal   IFR   IFR Intensif   IFR Très Intensif
Visi : 
Plafond : 
>= 8 km
>= 3000ft
5 à 8 km
1000 à 3000 ft
1500m à 5 km
500 à 1000 ft
800 à 1500m
200 à 500 ft
< 800m
< 200 ft
Symboles :   Orages  Brouillard  Fortes neiges  Fortes précipitations  Vent > 20 kt
SIGMETs :   Divers  Orages  Givrage  Turbulence  Onde Orograph.  Cendres Volcan.







- Altitude de l'aérodrome : 1465 ft


LSMP - Payerne

DERNIER METAR :
  • 230650Z 05003KT 3700 BR SCT043 00/M01 Q0995 RMK GRN

METARs EXPIRÉS :
  • 230620Z 06003KT 3500 FEW004 BKN054 M03/M04 Q0995 RMK YLO
  • 230550Z VRB02KT 3600 FEW003 BKN051 M03/M03 Q0996 RMK YLO
  • 230520Z 00000KT 3600 BR FEW015 00/M01 Q0996 RMK YLO
  • 230450Z VRB01KT 3500 -SN BR NSC 00/M01 Q0996 RMK YLO
  • 230420Z VRB02KT 3100 -SN BR FEW006 00/M01 Q0997 RMK YLO

Prévision TAF périmée.
Pas de NOTAMs connus pour ce terrain.



MET'MAP, la Météo Aéronautique d'un coup d'oeil ! - Copyright ORBIFLY Décembre 2007 - Disclaimer

ORBIFLY MET'MAP TEAM :

Programmation & Développement : Alexandra Zaïnal
Conception & Développement : Baudouin d'Aumeries
Co-Programmation & Développement : Marc-Olivier Méhu
Soutien technique & logistique : Manuel Goepfert

Contact : metmap@orbifly.com




SOURCES & CREDITS :

   NOAA